Terminal Aerodrome Forecast
Issued by NWS Buffalo, NY

Home | Current Version | Previous Version | Text Only | Print | Product List | Glossary On
Versions: 1 2 3 4 5 6 7 8 9 10 11 12 13 14 15 16 17 18 19 20 21 22 23 24 25 26
565
FTUS41 KBUF 210538
TAFBUF
TAF
KBUF 210538Z 2106/2206 21015G25KT P6SM FEW250 WS020/23050KT
     FM211200 21018G28KT P6SM SCT250
     FM211800 22021G31KT P6SM SCT150 BKN200
     FM212100 23018G27KT P6SM BKN045
     FM220000 24017G23KT P6SM VCSH OVC035
     FM220200 27012G20KT 6SM -SHRA OVC020=

USA.gov is the U.S. government's official web portal to all federal, state and local government web resources and services.